createdAt,value
2019-03-26T00:00:36.944Z,0
2019-03-26T00:01:37.159Z,0
2019-03-26T00:02:36.897Z,0
2019-03-26T00:03:37.122Z,0
2019-03-26T00:04:37.111Z,0
2019-03-26T00:05:37.086Z,0
2019-03-26T00:06:37.069Z,0
2019-03-26T00:07:36.809Z,0
2019-03-26T00:08:37.029Z,0
2019-03-26T00:09:37.017Z,0
2019-03-26T00:10:36.998Z,0
2019-03-26T00:11:36.749Z,0
2019-03-26T00:12:36.714Z,0
2019-03-26T00:13:36.943Z,0
2019-03-26T00:14:36.926Z,0
2019-03-26T00:15:36.907Z,0
2019-03-26T00:16:36.401Z,0
2019-03-26T00:17:36.626Z,0
2019-03-26T00:18:36.606Z,0
2019-03-26T00:19:36.985Z,0
2019-03-26T00:20:36.830Z,0
2019-03-26T00:21:36.804Z,0
2019-03-26T00:22:36.779Z,0
2019-03-26T00:23:36.764Z,0
2019-03-26T00:24:36.750Z,0
2019-03-26T00:25:36.738Z,0
2019-03-26T00:26:36.706Z,0
2019-03-26T00:27:36.694Z,0
2019-03-26T00:28:36.682Z,0
2019-03-26T00:29:36.662Z,0
2019-03-26T00:30:36.639Z,0
2019-03-26T00:31:36.618Z,0
2019-03-26T00:32:36.602Z,0
2019-03-26T00:33:43.685Z,0
2019-03-26T00:34:36.570Z,0
2019-03-26T00:35:36.549Z,0
2019-03-26T00:36:36.534Z,0
2019-03-26T00:37:36.515Z,0
2019-03-26T00:38:36.789Z,0
2019-03-26T00:39:36.478Z,0
2019-03-26T00:40:36.209Z,0
2019-03-26T00:41:36.193Z,0
2019-03-26T00:42:36.427Z,0
2019-03-26T00:43:36.406Z,0
2019-03-26T00:44:36.386Z,0
2019-03-26T00:45:36.377Z,0
2019-03-26T00:46:36.116Z,0
2019-03-26T00:47:36.336Z,0
2019-03-26T00:48:36.318Z,0
2019-03-26T00:49:36.057Z,0
2019-03-26T00:50:36.281Z,0
2019-03-26T00:51:36.270Z,0
2019-03-26T00:52:36.251Z,0
2019-03-26T00:53:36.232Z,0
2019-03-26T00:54:36.212Z,0
2019-03-26T00:55:36.291Z,0
2019-03-26T00:56:36.180Z,0
2019-03-26T00:57:35.912Z,0
2019-03-26T00:58:36.140Z,0
2019-03-26T00:59:35.871Z,0
2019-03-26T01:00:36.102Z,0
2019-03-26T01:01:36.087Z,0
2019-03-26T01:02:36.071Z,0
2019-03-26T01:03:36.115Z,0
2019-03-26T01:04:40.490Z,0
2019-03-26T01:05:36.021Z,0
2019-03-26T01:06:35.996Z,0
2019-03-26T01:07:35.979Z,0
2019-03-26T01:08:35.962Z,0
2019-03-26T01:09:35.941Z,0
2019-03-26T01:10:35.925Z,0
2019-03-26T01:11:35.665Z,0
2019-03-26T01:12:38.360Z,0
2019-03-26T01:13:35.640Z,0
2019-03-26T01:14:35.856Z,0
2019-03-26T01:15:35.842Z,0
2019-03-26T01:16:35.583Z,0
2019-03-26T01:17:35.803Z,0
2019-03-26T01:18:35.536Z,0
2019-03-26T01:19:35.767Z,0
2019-03-26T01:20:35.750Z,0
2019-03-26T01:21:35.734Z,0
2019-03-26T01:22:35.710Z,0
2019-03-26T01:23:35.697Z,0
2019-03-26T01:24:35.433Z,0
2019-03-26T01:25:35.907Z,0
2019-03-26T01:26:35.152Z,0
2019-03-26T01:27:35.633Z,0
2019-03-26T01:28:35.606Z,0
2019-03-26T01:29:35.348Z,0
2019-03-26T01:30:35.568Z,0
2019-03-26T01:31:35.560Z,0
2019-03-26T01:32:35.536Z,0
2019-03-26T01:33:35.517Z,0
2019-03-26T01:34:48.204Z,0
2019-03-26T01:35:35.481Z,0
2019-03-26T01:36:35.486Z,0
2019-03-26T01:37:35.453Z,0
2019-03-26T01:38:35.178Z,0
2019-03-26T01:39:35.415Z,0
2019-03-26T01:40:35.518Z,0
2019-03-26T01:41:35.397Z,0
2019-03-26T01:42:35.366Z,0
2019-03-26T01:43:35.129Z,0
2019-03-26T01:44:35.325Z,0
2019-03-26T01:45:35.309Z,0
2019-03-26T01:46:35.297Z,0
2019-03-26T01:47:35.024Z,0
2019-03-26T01:48:35.260Z,0
2019-03-26T01:49:35.275Z,0
2019-03-26T01:50:35.217Z,0
2019-03-26T01:51:34.959Z,0
2019-03-26T01:52:35.190Z,0
2019-03-26T01:53:35.166Z,0
2019-03-26T01:54:35.147Z,0
2019-03-26T01:55:35.131Z,0
2019-03-26T01:56:35.122Z,0
2019-03-26T01:57:34.844Z,0
2019-03-26T01:58:34.827Z,0
2019-03-26T01:59:34.814Z,0
2019-03-26T02:00:35.054Z,0
2019-03-26T02:01:35.025Z,0
2019-03-26T02:02:35.011Z,0
2019-03-26T02:03:34.742Z,0
2019-03-26T02:04:34.974Z,0
2019-03-26T02:05:34.954Z,0
2019-03-26T02:06:34.946Z,0
2019-03-26T02:07:34.925Z,0
2019-03-26T02:08:34.909Z,0
2019-03-26T02:09:34.641Z,0
2019-03-26T02:10:34.874Z,0
2019-03-26T02:11:34.845Z,0
2019-03-26T02:12:34.839Z,0
2019-03-26T02:13:34.815Z,0
2019-03-26T02:14:34.803Z,0
2019-03-26T02:15:34.833Z,0
2019-03-26T02:16:34.768Z,0
2019-03-26T02:17:34.502Z,0
2019-03-26T02:18:34.732Z,0
2019-03-26T02:19:34.716Z,0
2019-03-26T02:20:34.705Z,0
2019-03-26T02:21:34.682Z,0
2019-03-26T02:22:34.664Z,0
2019-03-26T02:23:34.639Z,0
2019-03-26T02:24:34.661Z,0
2019-03-26T02:25:34.355Z,0
2019-03-26T02:26:34.590Z,0
2019-03-26T02:27:34.575Z,0
2019-03-26T02:28:34.316Z,0
2019-03-26T02:29:34.284Z,0
2019-03-26T02:30:35.057Z,0
2019-03-26T02:31:34.270Z,0
2019-03-26T02:32:34.487Z,0
2019-03-26T02:33:34.240Z,0
2019-03-26T02:34:34.463Z,0
2019-03-26T02:35:34.478Z,0
2019-03-26T02:36:34.433Z,0
2019-03-26T02:37:34.157Z,0
2019-03-26T02:38:34.339Z,0
2019-03-26T02:39:34.124Z,0
2019-03-26T02:40:34.487Z,0
2019-03-26T02:41:37.537Z,0
2019-03-26T02:42:34.314Z,0
2019-03-26T02:43:34.311Z,0
2019-03-26T02:44:34.293Z,0
2019-03-26T02:45:34.286Z,0
2019-03-26T02:46:34.004Z,0
2019-03-26T02:47:34.254Z,0
2019-03-26T02:48:34.231Z,0
2019-03-26T02:49:34.187Z,0
2019-03-26T02:50:33.937Z,0
2019-03-26T02:51:34.184Z,0
2019-03-26T02:52:34.144Z,0
2019-03-26T02:53:34.180Z,0
2019-03-26T02:54:34.122Z,0
2019-03-26T02:55:34.115Z,0
2019-03-26T02:56:34.079Z,0
2019-03-26T02:57:33.826Z,0
2019-03-26T02:58:34.034Z,0
2019-03-26T02:59:34.040Z,0
2019-03-26T03:00:33.511Z,0
2019-03-26T03:01:34.012Z,0
2019-03-26T03:02:33.965Z,0
2019-03-26T03:03:33.981Z,0
2019-03-26T03:04:33.977Z,0
2019-03-26T03:05:42.764Z,0
2019-03-26T03:06:34.007Z,0
2019-03-26T03:07:33.391Z,0
2019-03-26T03:08:33.882Z,0
2019-03-26T03:09:33.599Z,0
2019-03-26T03:10:33.850Z,0
2019-03-26T03:11:33.817Z,0
2019-03-26T03:12:33.793Z,0
2019-03-26T03:13:33.788Z,0
2019-03-26T03:14:33.769Z,0
2019-03-26T03:15:33.504Z,0
2019-03-26T03:16:33.729Z,0
2019-03-26T03:17:33.497Z,0
2019-03-26T03:18:33.699Z,0
2019-03-26T03:19:33.672Z,0
2019-03-26T03:20:33.175Z,0
2019-03-26T03:21:33.659Z,0
2019-03-26T03:22:33.619Z,0
2019-03-26T03:23:33.601Z,0
2019-03-26T03:24:33.597Z,0
2019-03-26T03:25:33.577Z,0
2019-03-26T03:26:33.580Z,0
2019-03-26T03:27:33.549Z,0
2019-03-26T03:28:33.518Z,0
2019-03-26T03:29:33.495Z,0
2019-03-26T03:30:33.597Z,0
2019-03-26T03:31:33.480Z,0
2019-03-26T03:32:33.499Z,0
2019-03-26T03:33:33.678Z,0
2019-03-26T03:34:33.427Z,0
2019-03-26T03:35:33.391Z,0
2019-03-26T03:36:33.750Z,0
2019-03-26T03:37:33.374Z,0
2019-03-26T03:38:33.346Z,0
2019-03-26T03:39:33.344Z,0
2019-03-26T03:40:33.327Z,0
2019-03-26T03:41:33.316Z,0
2019-03-26T03:42:33.272Z,0
2019-03-26T03:43:33.266Z,0
2019-03-26T03:44:32.988Z,0
2019-03-26T03:45:33.234Z,0
2019-03-26T03:46:33.214Z,0
2019-03-26T03:47:32.953Z,0
2019-03-26T03:48:33.347Z,0
2019-03-26T03:49:32.940Z,0
2019-03-26T03:50:33.184Z,0
2019-03-26T03:51:33.139Z,0
2019-03-26T03:52:33.106Z,0
2019-03-26T03:53:33.097Z,0
2019-03-26T03:54:32.844Z,0
2019-03-26T03:55:33.077Z,0
2019-03-26T03:56:32.796Z,0
2019-03-26T03:57:32.769Z,0
2019-03-26T03:58:33.087Z,0
2019-03-26T03:59:32.754Z,0
2019-03-26T04:00:32.718Z,0
2019-03-26T04:01:32.696Z,0
2019-03-26T04:02:32.677Z,0
2019-03-26T04:03:32.955Z,0
2019-03-26T04:04:32.891Z,0
2019-03-26T04:05:32.902Z,0
2019-03-26T04:06:32.870Z,0
2019-03-26T04:07:32.870Z,0
2019-03-26T04:08:32.839Z,0
2019-03-26T04:09:32.567Z,0
2019-03-26T04:10:32.799Z,0
2019-03-26T04:11:32.528Z,0
2019-03-26T04:12:32.516Z,0
2019-03-26T04:13:32.492Z,0
2019-03-26T04:14:32.752Z,0
2019-03-26T04:15:37.205Z,0
2019-03-26T04:16:32.686Z,0
2019-03-26T04:17:32.659Z,0
2019-03-26T04:18:32.166Z,0
2019-03-26T04:19:32.672Z,0
2019-03-26T04:20:32.628Z,0
2019-03-26T04:21:32.608Z,0
2019-03-26T04:22:32.582Z,0
2019-03-26T04:23:32.592Z,0
2019-03-26T04:24:32.540Z,0
2019-03-26T04:25:32.318Z,0
2019-03-26T04:26:32.525Z,0
2019-03-26T04:27:32.508Z,0
2019-03-26T04:28:32.517Z,0
2019-03-26T04:29:32.489Z,0
2019-03-26T04:30:32.447Z,0
2019-03-26T04:31:32.185Z,0
2019-03-26T04:32:32.414Z,0
2019-03-26T04:33:32.403Z,0
2019-03-26T04:34:32.404Z,4
2019-03-26T04:35:32.352Z,4
2019-03-26T04:36:33.680Z,0
2019-03-26T04:37:32.082Z,0
2019-03-26T04:38:32.307Z,4
2019-03-26T04:39:32.281Z,0
2019-03-26T04:40:32.273Z,4
2019-03-26T04:41:32.252Z,8
2019-03-26T04:42:32.223Z,8
2019-03-26T04:43:31.979Z,4
2019-03-26T04:44:32.188Z,8
2019-03-26T04:45:32.174Z,8
2019-03-26T04:46:31.910Z,8
2019-03-26T04:47:31.892Z,12
2019-03-26T04:48:31.867Z,16
2019-03-26T04:49:32.103Z,20
2019-03-26T04:50:32.113Z,24
2019-03-26T04:51:32.070Z,32
2019-03-26T04:52:32.049Z,40
2019-03-26T04:53:34.185Z,48
2019-03-26T04:54:32.014Z,52
2019-03-26T04:55:32.002Z,56
2019-03-26T04:56:31.981Z,56
2019-03-26T04:57:31.956Z,56
2019-03-26T04:58:31.941Z,68
2019-03-26T04:59:31.925Z,84
2019-03-26T05:00:31.904Z,88
2019-03-26T05:01:31.891Z,104
2019-03-26T05:02:31.890Z,116
2019-03-26T05:03:31.855Z,128
2019-03-26T05:04:31.588Z,140
2019-03-26T05:05:31.839Z,136
2019-03-26T05:06:44.560Z,152
2019-03-26T05:07:31.784Z,168
2019-03-26T05:08:31.519Z,164
2019-03-26T05:09:31.755Z,172
2019-03-26T05:10:31.784Z,188
2019-03-26T05:11:31.716Z,192
2019-03-26T05:12:31.455Z,208
2019-03-26T05:13:31.678Z,224
2019-03-26T05:14:31.663Z,252
2019-03-26T05:15:31.670Z,292
2019-03-26T05:16:31.625Z,300
2019-03-26T05:17:31.363Z,296
2019-03-26T05:18:31.593Z,296
2019-03-26T05:19:31.579Z,312
2019-03-26T05:20:31.559Z,340
2019-03-26T05:21:31.539Z,376
2019-03-26T05:22:31.753Z,416
2019-03-26T05:23:31.258Z,444
2019-03-26T05:24:31.486Z,452
2019-03-26T05:25:31.471Z,456
2019-03-26T05:26:31.458Z,480
2019-03-26T05:27:44.456Z,512
2019-03-26T05:28:31.422Z,540
2019-03-26T05:29:31.409Z,588
2019-03-26T05:30:33.088Z,596
2019-03-26T05:31:31.184Z,576
2019-03-26T05:32:31.345Z,548
2019-03-26T05:33:31.332Z,588
2019-03-26T05:34:31.070Z,616
2019-03-26T05:35:31.293Z,500
2019-03-26T05:36:31.288Z,488
2019-03-26T05:37:31.268Z,560
2019-03-26T05:38:30.999Z,524
2019-03-26T05:39:31.222Z,492
2019-03-26T05:40:31.204Z,484
2019-03-26T05:41:31.197Z,580
2019-03-26T05:42:30.926Z,608
2019-03-26T05:43:31.156Z,520
2019-03-26T05:44:31.138Z,592
2019-03-26T05:45:30.873Z,700
2019-03-26T05:46:31.103Z,908
2019-03-26T05:47:31.097Z,888
2019-03-26T05:48:31.126Z,680
2019-03-26T05:49:31.073Z,704
2019-03-26T05:50:31.038Z,800
2019-03-26T05:51:31.016Z,948
2019-03-26T05:52:30.509Z,956
2019-03-26T05:53:30.753Z,1052
2019-03-26T05:54:30.973Z,1148
2019-03-26T05:55:30.950Z,1136
2019-03-26T05:56:33.086Z,1044
2019-03-26T05:57:30.915Z,1076
2019-03-26T05:58:30.649Z,1268
2019-03-26T05:59:30.902Z,1368
2019-03-26T06:00:30.869Z,1360
2019-03-26T06:01:30.843Z,1240
2019-03-26T06:02:30.826Z,1316
2019-03-26T06:03:30.804Z,1316
2019-03-26T06:04:30.796Z,1464
2019-03-26T06:05:30.782Z,1512
2019-03-26T06:06:30.508Z,1620
2019-03-26T06:07:33.645Z,1652
2019-03-26T06:08:30.730Z,1564
2019-03-26T06:09:30.716Z,1520
2019-03-26T06:10:30.691Z,1524
2019-03-26T06:11:30.694Z,1512
2019-03-26T06:12:30.654Z,1592
2019-03-26T06:13:30.399Z,1712
2019-03-26T06:14:30.618Z,1764
2019-03-26T06:15:30.360Z,1828
2019-03-26T06:16:43.079Z,1960
2019-03-26T06:17:30.568Z,1984
2019-03-26T06:18:30.552Z,1632
2019-03-26T06:19:30.562Z,1556
2019-03-26T06:20:30.529Z,1604
2019-03-26T06:21:30.510Z,1556
2019-03-26T06:22:30.569Z,1776
2019-03-26T06:23:30.475Z,1868
2019-03-26T06:24:30.458Z,1752
2019-03-26T06:25:30.635Z,1720
2019-03-26T06:26:30.417Z,1496
2019-03-26T06:27:30.414Z,1416
2019-03-26T06:28:30.391Z,1384
2019-03-26T06:29:30.367Z,1288
2019-03-26T06:30:30.359Z,1412
2019-03-26T06:31:30.336Z,1816
2019-03-26T06:32:30.308Z,1500
2019-03-26T06:33:30.296Z,1600
2019-03-26T06:34:30.282Z,2080
2019-03-26T06:35:30.262Z,2376
2019-03-26T06:36:30.240Z,2052
2019-03-26T06:37:30.291Z,1992
2019-03-26T06:38:30.209Z,1852
2019-03-26T06:39:30.200Z,2476
2019-03-26T06:40:30.196Z,2096
2019-03-26T06:41:30.159Z,2496
2019-03-26T06:42:29.892Z,2080
2019-03-26T06:43:30.136Z,2280
2019-03-26T06:44:30.108Z,2288
2019-03-26T06:45:30.091Z,2224
2019-03-26T06:46:30.087Z,2392
2019-03-26T06:47:30.074Z,2836
2019-03-26T06:48:30.047Z,2364
2019-03-26T06:49:30.017Z,3000
2019-03-26T06:50:30.014Z,3108
2019-03-26T06:51:29.991Z,1984
2019-03-26T06:52:29.976Z,1552
2019-03-26T06:53:29.706Z,1948
2019-03-26T06:54:29.941Z,1996
2019-03-26T06:55:29.926Z,1664
2019-03-26T06:56:29.926Z,1652
2019-03-26T06:57:42.298Z,1788
2019-03-26T06:58:29.868Z,1544
2019-03-26T06:59:29.610Z,1856
2019-03-26T07:00:29.858Z,2432
2019-03-26T07:01:29.821Z,2204
2019-03-26T07:02:29.555Z,2412
2019-03-26T07:03:29.787Z,2548
2019-03-26T07:04:29.526Z,1936
2019-03-26T07:05:29.750Z,2040
2019-03-26T07:06:29.739Z,1976
2019-03-26T07:07:38.576Z,2072
2019-03-26T07:08:29.701Z,2300
2019-03-26T07:09:29.681Z,3008
2019-03-26T07:10:29.672Z,2972
2019-03-26T07:11:29.650Z,4312
2019-03-26T07:12:29.636Z,5532
2019-03-26T07:13:29.624Z,4360
2019-03-26T07:14:29.359Z,4988
2019-03-26T07:15:29.347Z,4832
2019-03-26T07:16:29.564Z,5340
2019-03-26T07:17:29.753Z,3856
2019-03-26T07:18:29.533Z,3584
2019-03-26T07:19:29.518Z,4520
2019-03-26T07:20:29.494Z,5104
2019-03-26T07:21:29.481Z,4452
2019-03-26T07:22:29.473Z,4016
2019-03-26T07:23:29.489Z,4084
2019-03-26T07:24:29.432Z,4500
2019-03-26T07:25:29.413Z,4040
2019-03-26T07:26:29.400Z,3160
2019-03-26T07:27:28.888Z,2820
2019-03-26T07:28:29.120Z,2984
2019-03-26T07:29:29.104Z,2948
2019-03-26T07:30:29.354Z,3832
2019-03-26T07:31:29.332Z,4312
2019-03-26T07:32:29.306Z,3780
2019-03-26T07:33:29.275Z,3948
2019-03-26T07:34:29.261Z,3016
2019-03-26T07:35:29.250Z,3324
2019-03-26T07:36:28.983Z,3940
2019-03-26T07:37:29.210Z,4972
2019-03-26T07:38:29.200Z,5300
2019-03-26T07:39:29.246Z,4632
2019-03-26T07:40:29.163Z,4200
2019-03-26T07:41:29.148Z,3824
2019-03-26T07:42:29.145Z,3420
2019-03-26T07:43:28.940Z,3536
2019-03-26T07:44:29.103Z,5476
2019-03-26T07:45:29.088Z,6068
2019-03-26T07:46:29.064Z,5980
2019-03-26T07:47:29.050Z,5476
2019-03-26T07:48:29.034Z,5876
2019-03-26T07:49:28.782Z,5812
2019-03-26T07:50:29.030Z,6284
2019-03-26T07:51:28.985Z,5504
2019-03-26T07:52:28.968Z,4412
2019-03-26T07:53:28.953Z,4536
2019-03-26T07:54:28.940Z,5056
2019-03-26T07:55:28.923Z,5036
2019-03-26T07:56:28.899Z,4820
2019-03-26T07:57:28.886Z,5016
2019-03-26T07:58:28.881Z,5528
2019-03-26T07:59:28.952Z,6720
2019-03-26T08:00:28.840Z,6228
2019-03-26T08:01:28.594Z,5280
2019-03-26T08:02:28.316Z,5116
2019-03-26T08:03:28.793Z,5184
2019-03-26T08:04:28.773Z,5860
2019-03-26T08:05:36.735Z,6888
2019-03-26T08:06:28.735Z,7668
2019-03-26T08:07:28.477Z,7348
2019-03-26T08:08:28.460Z,7616
2019-03-26T08:09:31.696Z,8004
2019-03-26T08:10:28.755Z,9152
2019-03-26T08:11:28.418Z,9612
2019-03-26T08:12:28.648Z,7832
2019-03-26T08:13:28.723Z,6496
2019-03-26T08:14:28.515Z,6636
2019-03-26T08:15:28.668Z,6552
2019-03-26T08:16:28.637Z,6952
2019-03-26T08:17:28.602Z,7760
2019-03-26T08:18:28.548Z,8944
2019-03-26T08:19:28.293Z,9324
2019-03-26T08:20:28.533Z,6908
2019-03-26T08:21:28.506Z,7548
2019-03-26T08:22:28.488Z,8128
2019-03-26T08:23:28.485Z,6884
2019-03-26T08:24:28.457Z,6464
2019-03-26T08:25:28.438Z,6892
2019-03-26T08:26:28.417Z,7264
2019-03-26T08:27:28.409Z,7512
2019-03-26T08:28:28.398Z,7488
2019-03-26T08:29:28.427Z,6868
2019-03-26T08:30:28.357Z,6316
2019-03-26T08:31:28.105Z,6396
2019-03-26T08:32:28.329Z,6368
2019-03-26T08:33:30.403Z,6808
2019-03-26T08:34:28.299Z,8032
2019-03-26T08:35:28.064Z,8112
2019-03-26T08:36:28.270Z,7812
2019-03-26T08:37:28.001Z,6760
2019-03-26T08:38:28.010Z,7372
2019-03-26T08:39:28.221Z,7244
2019-03-26T08:40:30.591Z,7948
2019-03-26T08:41:28.226Z,8196
2019-03-26T08:42:28.172Z,8168
2019-03-26T08:43:28.160Z,8888
2019-03-26T08:44:28.157Z,9092
2019-03-26T08:45:28.128Z,8612
2019-03-26T08:46:28.113Z,9956
2019-03-26T08:47:27.608Z,10040
2019-03-26T08:48:28.086Z,10172
2019-03-26T08:49:33.299Z,9760
2019-03-26T08:50:27.818Z,9800
2019-03-26T08:51:28.048Z,9664
2019-03-26T08:52:28.021Z,8752
2019-03-26T08:53:27.757Z,7532
2019-03-26T08:54:27.985Z,6344
2019-03-26T08:55:27.758Z,5768
2019-03-26T08:56:27.960Z,5284
2019-03-26T08:57:27.722Z,4436
2019-03-26T08:58:27.694Z,3904
2019-03-26T08:59:27.915Z,4332
2019-03-26T09:00:27.712Z,6016
2019-03-26T09:01:27.879Z,6764
2019-03-26T09:02:27.959Z,6580
2019-03-26T09:03:27.855Z,6776
2019-03-26T09:04:29.450Z,6012
2019-03-26T09:05:27.818Z,5896
2019-03-26T09:06:27.799Z,7344
2019-03-26T09:07:27.831Z,8100
2019-03-26T09:08:32.857Z,7464
2019-03-26T09:09:27.756Z,6112
2019-03-26T09:10:27.738Z,4944
2019-03-26T09:11:27.477Z,4228
2019-03-26T09:12:27.704Z,3356
2019-03-26T09:13:27.695Z,3132
2019-03-26T09:14:27.680Z,3500
2019-03-26T09:15:27.659Z,4332
2019-03-26T09:16:27.651Z,5528
2019-03-26T09:17:27.390Z,6536
2019-03-26T09:18:27.375Z,7268
2019-03-26T09:19:27.638Z,7608
2019-03-26T09:20:27.346Z,7084
2019-03-26T09:21:27.573Z,6344
2019-03-26T09:22:27.313Z,5844
2019-03-26T09:23:27.544Z,5600
2019-03-26T09:24:27.524Z,5248
2019-03-26T09:25:27.515Z,4996
2019-03-26T09:26:27.255Z,4920
2019-03-26T09:27:26.737Z,4696
2019-03-26T09:28:27.474Z,4632
2019-03-26T09:29:27.203Z,4568
2019-03-26T09:30:27.438Z,4360
2019-03-26T09:31:27.444Z,4468
2019-03-26T09:32:27.401Z,5036
2019-03-26T09:33:27.459Z,5740
2019-03-26T09:34:27.623Z,5764
2019-03-26T09:35:27.360Z,5420
2019-03-26T09:36:27.345Z,5096
2019-03-26T09:37:27.083Z,4412
2019-03-26T09:38:40.699Z,3592
2019-03-26T09:39:27.058Z,3624
2019-03-26T09:40:27.297Z,5056
2019-03-26T09:41:27.032Z,6072
2019-03-26T09:42:27.251Z,6692
2019-03-26T09:43:27.227Z,7068
2019-03-26T09:44:26.967Z,7420
2019-03-26T09:45:27.196Z,8188
2019-03-26T09:46:27.186Z,8556
2019-03-26T09:47:27.163Z,8516
2019-03-26T09:48:27.151Z,8432
2019-03-26T09:49:26.886Z,8756
2019-03-26T09:50:27.132Z,9604
2019-03-26T09:51:27.112Z,10228
2019-03-26T09:52:27.103Z,10068
2019-03-26T09:53:27.078Z,9700
2019-03-26T09:54:26.812Z,9180
2019-03-26T09:55:27.039Z,8484
2019-03-26T09:56:37.695Z,7552
2019-03-26T09:57:27.017Z,7228
2019-03-26T09:58:26.996Z,6984
2019-03-26T09:59:26.988Z,6700
2019-03-26T10:00:27.006Z,6476
2019-03-26T10:01:26.950Z,5924
2019-03-26T10:02:26.689Z,5744
2019-03-26T10:03:26.676Z,6276
2019-03-26T10:04:26.973Z,7328
2019-03-26T10:05:26.645Z,7776
2019-03-26T10:06:31.007Z,7764
2019-03-26T10:07:29.015Z,7336
2019-03-26T10:08:26.849Z,7288
2019-03-26T10:09:26.822Z,7584
2019-03-26T10:10:26.807Z,7664
2019-03-26T10:11:26.793Z,7268
2019-03-26T10:12:26.531Z,7108
2019-03-26T10:13:26.763Z,6980
2019-03-26T10:14:26.789Z,6580
2019-03-26T10:15:26.734Z,6172
2019-03-26T10:16:26.729Z,5828
2019-03-26T10:17:26.454Z,5724
2019-03-26T10:18:26.685Z,5608
2019-03-26T10:19:26.673Z,5412
2019-03-26T10:20:26.662Z,5376
2019-03-26T10:21:26.655Z,5904
2019-03-26T10:22:27.275Z,7296
2019-03-26T10:23:26.612Z,7924
2019-03-26T10:24:26.183Z,8476
2019-03-26T10:25:26.580Z,8976
2019-03-26T10:26:26.565Z,9348
2019-03-26T10:27:26.546Z,9680
2019-03-26T10:28:26.294Z,9496
2019-03-26T10:29:37.233Z,9052
2019-03-26T10:30:29.584Z,8860
2019-03-26T10:31:26.488Z,9188
2019-03-26T10:32:26.474Z,10152
2019-03-26T10:33:26.459Z,9600
2019-03-26T10:34:26.200Z,8500
2019-03-26T10:35:26.429Z,7840
2019-03-26T10:36:26.418Z,7768
2019-03-26T10:37:26.397Z,7512
2019-03-26T10:38:26.143Z,7136
2019-03-26T10:39:26.376Z,7088
2019-03-26T10:40:26.360Z,7984
2019-03-26T10:41:26.092Z,9140
2019-03-26T10:42:26.325Z,9540
2019-03-26T10:43:26.303Z,9104
2019-03-26T10:44:26.296Z,8724
2019-03-26T10:45:26.280Z,8496
2019-03-26T10:46:26.261Z,8204
2019-03-26T10:47:26.304Z,7904
2019-03-26T10:48:26.236Z,7480
2019-03-26T10:49:26.222Z,7516
2019-03-26T10:50:26.204Z,7280
2019-03-26T10:51:25.949Z,6892
2019-03-26T10:52:26.172Z,6616
2019-03-26T10:53:26.161Z,6920
2019-03-26T10:54:25.653Z,7640
2019-03-26T10:55:26.123Z,8360
2019-03-26T10:56:26.121Z,8524
2019-03-26T10:57:29.063Z,8636
2019-03-26T10:58:26.099Z,9636
2019-03-26T10:59:26.074Z,11044
2019-03-26T11:00:26.064Z,11588
2019-03-26T11:01:25.548Z,11720
2019-03-26T11:02:25.531Z,11300
2019-03-26T11:03:26.032Z,10972
2019-03-26T11:04:26.009Z,9536
2019-03-26T11:05:25.979Z,8332
2019-03-26T11:06:26.014Z,7652
2019-03-26T11:07:25.715Z,7708
2019-03-26T11:08:25.946Z,7360
2019-03-26T11:09:33.797Z,6964
2019-03-26T11:10:25.930Z,7372
2019-03-26T11:11:25.894Z,7676
2019-03-26T11:12:25.641Z,7708
2019-03-26T11:13:25.868Z,7704
2019-03-26T11:14:25.849Z,8260
2019-03-26T11:15:25.342Z,9276
2019-03-26T11:16:25.812Z,9492
2019-03-26T11:17:25.805Z,9312
2019-03-26T11:18:25.795Z,9892
2019-03-26T11:19:25.797Z,9936
2019-03-26T11:20:25.769Z,9216
2019-03-26T11:21:25.748Z,8220
2019-03-26T11:22:25.483Z,8348
2019-03-26T11:23:25.479Z,8504
2019-03-26T11:24:25.467Z,7884
2019-03-26T11:25:25.443Z,6888
2019-03-26T11:26:25.676Z,6684
2019-03-26T11:27:25.664Z,6744
2019-03-26T11:28:25.665Z,6772
2019-03-26T11:29:25.392Z,6780
2019-03-26T11:30:25.124Z,7032
2019-03-26T11:31:25.594Z,7548
2019-03-26T11:32:25.580Z,7604
2019-03-26T11:33:25.323Z,8008
2019-03-26T11:34:25.560Z,9004
2019-03-26T11:35:25.540Z,8808
2019-03-26T11:36:25.524Z,8520
2019-03-26T11:37:25.509Z,9516
2019-03-26T11:38:25.886Z,11368
2019-03-26T11:39:39.101Z,11748
2019-03-26T11:40:25.462Z,11408
2019-03-26T11:41:25.452Z,11624
2019-03-26T11:42:25.433Z,11812
2019-03-26T11:43:25.420Z,11604
2019-03-26T11:44:25.427Z,11452
2019-03-26T11:45:25.388Z,10804
2019-03-26T11:46:25.376Z,10696
2019-03-26T11:47:25.358Z,11300
2019-03-26T11:48:25.377Z,10832
2019-03-26T11:49:25.336Z,10556
2019-03-26T11:50:25.152Z,9724
2019-03-26T11:51:25.302Z,8180
2019-03-26T11:52:25.040Z,6880
2019-03-26T11:53:25.030Z,5908
2019-03-26T11:54:25.388Z,5440
2019-03-26T11:55:26.791Z,5548
2019-03-26T11:56:25.231Z,5684
2019-03-26T11:57:24.976Z,6236
2019-03-26T11:58:37.582Z,6340
2019-03-26T11:59:25.185Z,6192
2019-03-26T12:00:25.170Z,5980
2019-03-26T12:01:25.177Z,5688
2019-03-26T12:02:25.562Z,5468
2019-03-26T12:03:25.198Z,4984
2019-03-26T12:04:25.116Z,4632
2019-03-26T12:05:24.863Z,4536
2019-03-26T12:06:25.079Z,4800
2019-03-26T12:07:25.083Z,5304
2019-03-26T12:08:25.053Z,5792
2019-03-26T12:09:25.035Z,6408
2019-03-26T12:10:25.019Z,7280
2019-03-26T12:11:24.774Z,8592
2019-03-26T12:12:24.999Z,9820
2019-03-26T12:13:24.736Z,10332
2019-03-26T12:14:24.965Z,10340
2019-03-26T12:15:24.697Z,9808
2019-03-26T12:16:24.930Z,9004
2019-03-26T12:17:24.690Z,8656
2019-03-26T12:18:24.657Z,8448
2019-03-26T12:19:24.886Z,8504
2019-03-26T12:20:24.875Z,8148
2019-03-26T12:21:24.613Z,7716
2019-03-26T12:22:24.845Z,7032
2019-03-26T12:23:24.841Z,5788
2019-03-26T12:24:24.816Z,4996
2019-03-26T12:25:24.884Z,6440
2019-03-26T12:26:24.542Z,9000
2019-03-26T12:27:24.776Z,11088
2019-03-26T12:28:24.777Z,11896
2019-03-26T12:29:24.751Z,11248
2019-03-26T12:30:24.482Z,9912
2019-03-26T12:31:24.709Z,9612
2019-03-26T12:32:24.691Z,10592
2019-03-26T12:33:24.686Z,10768
2019-03-26T12:34:24.419Z,11240
2019-03-26T12:35:24.659Z,10296
2019-03-26T12:36:24.639Z,9684
2019-03-26T12:37:24.624Z,9516
2019-03-26T12:38:24.615Z,9824
2019-03-26T12:39:24.347Z,9588
2019-03-26T12:40:24.581Z,9708
2019-03-26T12:41:24.564Z,10296
2019-03-26T12:42:24.548Z,10880
2019-03-26T12:43:24.535Z,11076
2019-03-26T12:44:24.536Z,10696
2019-03-26T12:45:24.513Z,10132
2019-03-26T12:46:24.500Z,10028
2019-03-26T12:47:24.491Z,9328
2019-03-26T12:48:24.472Z,10024
2019-03-26T12:49:24.457Z,11192
2019-03-26T12:50:24.438Z,11584
2019-03-26T12:51:24.423Z,11544
2019-03-26T12:52:24.410Z,11068
2019-03-26T12:53:24.160Z,11080
2019-03-26T12:54:24.383Z,10864
2019-03-26T12:55:24.373Z,10780
2019-03-26T12:56:24.359Z,10664
2019-03-26T12:57:24.371Z,10492
2019-03-26T12:58:41.250Z,10884
2019-03-26T12:59:26.599Z,11144
2019-03-26T13:00:24.303Z,11280
2019-03-26T13:01:24.296Z,10920
2019-03-26T13:02:24.273Z,11204
2019-03-26T13:03:24.258Z,11240
2019-03-26T13:04:24.249Z,11284
2019-03-26T13:05:25.724Z,10748
2019-03-26T13:06:24.225Z,10680
2019-03-26T13:07:24.200Z,10660
2019-03-26T13:08:24.187Z,10932
2019-03-26T13:09:24.191Z,10756
2019-03-26T13:10:24.163Z,10468
2019-03-26T13:11:24.232Z,9428
2019-03-26T13:12:24.134Z,9120
2019-03-26T13:13:24.123Z,9144
2019-03-26T13:14:24.108Z,9636
2019-03-26T13:15:23.856Z,10160
2019-03-26T13:16:24.086Z,10188
2019-03-26T13:17:24.161Z,9704
2019-03-26T13:18:24.060Z,8992
2019-03-26T13:19:24.049Z,8376
2019-03-26T13:20:24.032Z,7848
2019-03-26T13:21:24.020Z,7128
2019-03-26T13:22:23.999Z,6844
2019-03-26T13:23:24.000Z,6576
2019-03-26T13:24:23.724Z,6764
2019-03-26T13:25:23.481Z,7152
2019-03-26T13:26:24.023Z,7720
2019-03-26T13:27:23.951Z,7504
2019-03-26T13:28:24.014Z,6756
2019-03-26T13:29:23.656Z,6076
2019-03-26T13:30:23.899Z,5684
2019-03-26T13:31:23.880Z,5644
2019-03-26T13:32:23.873Z,5668
2019-03-26T13:33:23.855Z,5236
2019-03-26T13:34:23.835Z,4880
2019-03-26T13:35:23.579Z,4868
2019-03-26T13:36:23.814Z,4920
2019-03-26T13:37:26.629Z,4600
2019-03-26T13:38:23.784Z,4244
2019-03-26T13:39:23.765Z,4356
2019-03-26T13:40:34.079Z,4860
2019-03-26T13:41:23.496Z,5020
2019-03-26T13:42:23.234Z,4976
2019-03-26T13:43:23.217Z,4648
2019-03-26T13:44:23.697Z,4992
2019-03-26T13:45:23.681Z,5532
2019-03-26T13:46:23.666Z,6796
2019-03-26T13:47:23.428Z,7472